sensor_id;sensor_type;location;lat;lon;timestamp;temperature;humidity
1830;DHT22;914;48.118;11.600;2022-11-14T00:00:10;8.10;99.90
1830;DHT22;914;48.118;11.600;2022-11-14T00:02:37;8.00;99.90
1830;DHT22;914;48.118;11.600;2022-11-14T00:05:04;7.90;99.90
1830;DHT22;914;48.118;11.600;2022-11-14T00:07:31;8.40;99.90
1830;DHT22;914;48.118;11.600;2022-11-14T00:10:00;8.20;99.90
1830;DHT22;914;48.118;11.600;2022-11-14T00:12:26;8.00;99.90
1830;DHT22;914;48.118;11.600;2022-11-14T00:14:52;8.10;99.90
1830;DHT22;914;48.118;11.600;2022-11-14T00:17:20;8.10;99.90
1830;DHT22;914;48.118;11.600;2022-11-14T00:19:47;8.20;99.90
1830;DHT22;914;48.118;11.600;2022-11-14T00:22:13;8.40;99.90
1830;DHT22;914;48.118;11.600;2022-11-14T00:24:39;8.20;99.90
1830;DHT22;914;48.118;11.600;2022-11-14T00:27:08;8.20;99.90
1830;DHT22;914;48.118;11.600;2022-11-14T00:29:33;8.20;99.90
1830;DHT22;914;48.118;11.600;2022-11-14T00:31:59;8.10;99.90
1830;DHT22;914;48.118;11.600;2022-11-14T00:34:25;8.10;99.90
1830;DHT22;914;48.118;11.600;2022-11-14T00:36:50;7.90;99.90
1830;DHT22;914;48.118;11.600;2022-11-14T00:39:16;7.90;99.90
1830;DHT22;914;48.118;11.600;2022-11-14T00:41:42;7.80;99.90
1830;DHT22;914;48.118;11.600;2022-11-14T00:44:07;7.80;99.90
1830;DHT22;914;48.118;11.600;2022-11-14T00:46:36;7.50;99.90
1830;DHT22;914;48.118;11.600;2022-11-14T00:49:03;7.40;99.90
1830;DHT22;914;48.118;11.600;2022-11-14T00:51:28;7.40;99.90
1830;DHT22;914;48.118;11.600;2022-11-14T00:53:54;7.30;99.90
1830;DHT22;914;48.118;11.600;2022-11-14T00:56:20;7.40;99.90
1830;DHT22;914;48.118;11.600;2022-11-14T00:58:45;7.40;99.90
1830;DHT22;914;48.118;11.600;2022-11-14T01:01:14;7.60;99.90
1830;DHT22;914;48.118;11.600;2022-11-14T01:03:45;7.50;99.90
1830;DHT22;914;48.118;11.600;2022-11-14T01:06:14;7.40;99.90
1830;DHT22;914;48.118;11.600;2022-11-14T01:08:43;7.40;99.90
1830;DHT22;914;48.118;11.600;2022-11-14T01:11:16;7.50;99.90
1830;DHT22;914;48.118;11.600;2022-11-14T01:13:42;7.60;99.90
1830;DHT22;914;48.118;11.600;2022-11-14T01:16:09;7.60;99.90
1830;DHT22;914;48.118;11.600;2022-11-14T01:18:39;7.70;99.90
1830;DHT22;914;48.118;11.600;2022-11-14T01:21:07;7.70;99.90
1830;DHT22;914;48.118;11.600;2022-11-14T01:23:33;7.70;99.90
1830;DHT22;914;48.118;11.600;2022-11-14T01:26:08;7.60;99.90
1830;DHT22;914;48.118;11.600;2022-11-14T01:28:38;7.50;99.90
1830;DHT22;914;48.118;11.600;2022-11-14T01:31:14;7.50;99.90
1830;DHT22;914;48.118;11.600;2022-11-14T01:33:41;7.50;99.90
1830;DHT22;914;48.118;11.600;2022-11-14T01:36:07;7.50;99.90
1830;DHT22;914;48.118;11.600;2022-11-14T01:38:36;7.50;99.90
1830;DHT22;914;48.118;11.600;2022-11-14T01:41:03;7.70;99.90
1830;DHT22;914;48.118;11.600;2022-11-14T01:43:38;7.70;99.90
1830;DHT22;914;48.118;11.600;2022-11-14T01:49:13;7.60;99.90
1830;DHT22;914;48.118;11.600;2022-11-14T01:51:49;7.60;99.90
1830;DHT22;914;48.118;11.600;2022-11-14T01:54:25;7.30;99.90
1830;DHT22;914;48.118;11.600;2022-11-14T01:56:55;7.20;99.90
1830;DHT22;914;48.118;11.600;2022-11-14T01:59:25;7.30;99.90
1830;DHT22;914;48.118;11.600;2022-11-14T02:01:53;7.40;99.90
1830;DHT22;914;48.118;11.600;2022-11-14T02:04:27;7.30;99.90
1830;DHT22;914;48.118;11.600;2022-11-14T02:06:57;7.40;99.90
1830;DHT22;914;48.118;11.600;2022-11-14T02:09:24;7.30;99.90
1830;DHT22;914;48.118;11.600;2022-11-14T02:11:51;7.40;99.90
1830;DHT22;914;48.118;11.600;2022-11-14T02:14:18;7.20;99.90
1830;DHT22;914;48.118;11.600;2022-11-14T02:16:44;7.20;99.90
1830;DHT22;914;48.118;11.600;2022-11-14T02:19:10;7.30;99.90
1830;DHT22;914;48.118;11.600;2022-11-14T02:21:38;7.30;99.90
1830;DHT22;914;48.118;11.600;2022-11-14T02:24:10;7.40;99.90
1830;DHT22;914;48.118;11.600;2022-11-14T02:26:40;7.40;99.90
1830;DHT22;914;48.118;11.600;2022-11-14T02:29:09;7.50;99.90
1830;DHT22;914;48.118;11.600;2022-11-14T02:31:38;7.50;99.90
1830;DHT22;914;48.118;11.600;2022-11-14T02:34:03;7.50;99.90
1830;DHT22;914;48.118;11.600;2022-11-14T02:36:32;7.50;99.90
1830;DHT22;914;48.118;11.600;2022-11-14T02:38:57;7.50;99.90
1830;DHT22;914;48.118;11.600;2022-11-14T02:41:23;7.50;99.90
1830;DHT22;914;48.118;11.600;2022-11-14T02:43:48;7.30;99.90
1830;DHT22;914;48.118;11.600;2022-11-14T02:46:14;7.30;99.90
1830;DHT22;914;48.118;11.600;2022-11-14T02:48:40;7.40;99.90
1830;DHT22;914;48.118;11.600;2022-11-14T02:51:05;7.60;99.90
1830;DHT22;914;48.118;11.600;2022-11-14T02:53:31;7.70;99.90
1830;DHT22;914;48.118;11.600;2022-11-14T02:55:58;8.10;99.90
1830;DHT22;914;48.118;11.600;2022-11-14T02:58:24;8.00;99.90
1830;DHT22;914;48.118;11.600;2022-11-14T03:00:52;7.90;99.90
1830;DHT22;914;48.118;11.600;2022-11-14T03:03:18;7.20;99.90
1830;DHT22;914;48.118;11.600;2022-11-14T03:05:44;7.10;99.90
1830;DHT22;914;48.118;11.600;2022-11-14T03:08:12;7.40;99.90
1830;DHT22;914;48.118;11.600;2022-11-14T03:10:38;7.50;99.90
1830;DHT22;914;48.118;11.600;2022-11-14T03:13:03;7.40;99.90
1830;DHT22;914;48.118;11.600;2022-11-14T03:15:29;7.50;99.90
1830;DHT22;914;48.118;11.600;2022-11-14T03:17:58;7.50;99.90
1830;DHT22;914;48.118;11.600;2022-11-14T03:20:23;7.30;99.90
1830;DHT22;914;48.118;11.600;2022-11-14T03:22:51;7.30;99.90
1830;DHT22;914;48.118;11.600;2022-11-14T03:25:17;7.30;99.90
1830;DHT22;914;48.118;11.600;2022-11-14T03:27:43;7.20;99.90
1830;DHT22;914;48.118;11.600;2022-11-14T03:30:12;7.40;99.90
1830;DHT22;914;48.118;11.600;2022-11-14T03:32:38;7.40;99.90
1830;DHT22;914;48.118;11.600;2022-11-14T03:35:10;7.60;99.90
1830;DHT22;914;48.118;11.600;2022-11-14T03:37:36;7.50;99.90
1830;DHT22;914;48.118;11.600;2022-11-14T03:40:02;7.30;99.90
1830;DHT22;914;48.118;11.600;2022-11-14T03:42:32;7.20;99.90
1830;DHT22;914;48.118;11.600;2022-11-14T03:44:58;7.20;99.90
1830;DHT22;914;48.118;11.600;2022-11-14T03:47:24;7.00;99.90
1830;DHT22;914;48.118;11.600;2022-11-14T03:49:49;6.60;99.90
1830;DHT22;914;48.118;11.600;2022-11-14T03:52:18;6.50;99.90
1830;DHT22;914;48.118;11.600;2022-11-14T03:54:43;6.70;99.90
1830;DHT22;914;48.118;11.600;2022-11-14T03:57:11;6.80;99.90
1830;DHT22;914;48.118;11.600;2022-11-14T03:59:37;6.80;99.90
1830;DHT22;914;48.118;11.600;2022-11-14T04:02:02;7.00;99.90
1830;DHT22;914;48.118;11.600;2022-11-14T04:04:29;7.00;99.90
1830;DHT22;914;48.118;11.600;2022-11-14T04:06:58;7.10;99.90
1830;DHT22;914;48.118;11.600;2022-11-14T04:09:24;7.10;99.90
1830;DHT22;914;48.118;11.600;2022-11-14T04:11:49;7.00;99.90
1830;DHT22;914;48.118;11.600;2022-11-14T04:14:15;7.10;99.90
1830;DHT22;914;48.118;11.600;2022-11-14T04:16:41;7.10;99.90
1830;DHT22;914;48.118;11.600;2022-11-14T04:19:06;7.20;99.90
1830;DHT22;914;48.118;11.600;2022-11-14T04:21:32;7.30;99.90
1830;DHT22;914;48.118;11.600;2022-11-14T04:23:58;7.30;99.90
1830;DHT22;914;48.118;11.600;2022-11-14T04:26:23;7.20;99.90
1830;DHT22;914;48.118;11.600;2022-11-14T04:28:49;7.10;99.90
1830;DHT22;914;48.118;11.600;2022-11-14T04:31:17;7.10;99.90
1830;DHT22;914;48.118;11.600;2022-11-14T04:33:45;7.10;99.90
1830;DHT22;914;48.118;11.600;2022-11-14T04:36:11;7.00;99.90
1830;DHT22;914;48.118;11.600;2022-11-14T04:38:40;6.90;99.90
1830;DHT22;914;48.118;11.600;2022-11-14T04:41:05;6.90;99.90
1830;DHT22;914;48.118;11.600;2022-11-14T04:43:31;6.90;99.90
1830;DHT22;914;48.118;11.600;2022-11-14T04:45:59;6.40;99.90
1830;DHT22;914;48.118;11.600;2022-11-14T04:48:25;6.80;99.90
1830;DHT22;914;48.118;11.600;2022-11-14T04:50:50;6.70;99.90
1830;DHT22;914;48.118;11.600;2022-11-14T04:53:16;6.80;99.90
1830;DHT22;914;48.118;11.600;2022-11-14T04:55:43;6.90;99.90
1830;DHT22;914;48.118;11.600;2022-11-14T04:58:10;6.90;99.90
1830;DHT22;914;48.118;11.600;2022-11-14T05:00:35;7.00;99.90
1830;DHT22;914;48.118;11.600;2022-11-14T05:03:03;7.20;99.90
1830;DHT22;914;48.118;11.600;2022-11-14T05:05:31;7.10;99.90
1830;DHT22;914;48.118;11.600;2022-11-14T05:07:57;7.00;99.90
1830;DHT22;914;48.118;11.600;2022-11-14T05:10:23;7.10;99.90
1830;DHT22;914;48.118;11.600;2022-11-14T05:12:52;7.10;99.90
1830;DHT22;914;48.118;11.600;2022-11-14T05:15:19;7.10;99.90
1830;DHT22;914;48.118;11.600;2022-11-14T05:17:44;7.20;99.90
1830;DHT22;914;48.118;11.600;2022-11-14T05:20:16;7.20;99.90
1830;DHT22;914;48.118;11.600;2022-11-14T05:22:42;7.20;99.90
1830;DHT22;914;48.118;11.600;2022-11-14T05:25:08;7.10;99.90
1830;DHT22;914;48.118;11.600;2022-11-14T05:27:34;7.00;99.90
1830;DHT22;914;48.118;11.600;2022-11-14T05:29:59;7.00;99.90
1830;DHT22;914;48.118;11.600;2022-11-14T05:32:28;6.90;99.90
1830;DHT22;914;48.118;11.600;2022-11-14T05:34:54;6.90;99.90
1830;DHT22;914;48.118;11.600;2022-11-14T05:37:19;6.90;99.90
1830;DHT22;914;48.118;11.600;2022-11-14T05:39:45;7.00;99.90
1830;DHT22;914;48.118;11.600;2022-11-14T05:42:11;7.00;99.90
1830;DHT22;914;48.118;11.600;2022-11-14T05:44:36;7.10;99.90
1830;DHT22;914;48.118;11.600;2022-11-14T05:47:02;7.10;99.90
1830;DHT22;914;48.118;11.600;2022-11-14T05:49:27;6.90;99.90
1830;DHT22;914;48.118;11.600;2022-11-14T05:51:56;6.90;99.90
1830;DHT22;914;48.118;11.600;2022-11-14T05:54:22;6.80;99.90
1830;DHT22;914;48.118;11.600;2022-11-14T05:56:47;6.80;99.90
1830;DHT22;914;48.118;11.600;2022-11-14T05:59:16;6.70;99.90
1830;DHT22;914;48.118;11.600;2022-11-14T06:01:41;6.70;99.90
1830;DHT22;914;48.118;11.600;2022-11-14T06:04:07;6.80;99.90
1830;DHT22;914;48.118;11.600;2022-11-14T06:06:32;6.70;99.90
1830;DHT22;914;48.118;11.600;2022-11-14T06:08:58;6.70;99.90
1830;DHT22;914;48.118;11.600;2022-11-14T06:11:24;6.60;99.90
1830;DHT22;914;48.118;11.600;2022-11-14T06:13:50;6.60;99.90
1830;DHT22;914;48.118;11.600;2022-11-14T06:16:20;6.50;99.90
1830;DHT22;914;48.118;11.600;2022-11-14T06:18:46;6.50;99.90
1830;DHT22;914;48.118;11.600;2022-11-14T06:21:15;6.20;99.90
1830;DHT22;914;48.118;11.600;2022-11-14T06:23:44;6.20;99.90
1830;DHT22;914;48.118;11.600;2022-11-14T06:26:27;6.20;99.90
1830;DHT22;914;48.118;11.600;2022-11-14T06:28:58;6.40;99.90
1830;DHT22;914;48.118;11.600;2022-11-14T06:31:24;6.40;99.90
1830;DHT22;914;48.118;11.600;2022-11-14T06:33:50;6.40;99.90
1830;DHT22;914;48.118;11.600;2022-11-14T06:36:16;6.40;99.90
1830;DHT22;914;48.118;11.600;2022-11-14T06:38:45;6.50;99.90
1830;DHT22;914;48.118;11.600;2022-11-14T06:41:16;6.50;99.90
1830;DHT22;914;48.118;11.600;2022-11-14T06:43:45;6.40;99.90
1830;DHT22;914;48.118;11.600;2022-11-14T06:46:13;6.50;99.90
1830;DHT22;914;48.118;11.600;2022-11-14T06:48:43;6.50;99.90
1830;DHT22;914;48.118;11.600;2022-11-14T06:51:10;6.40;99.90
1830;DHT22;914;48.118;11.600;2022-11-14T06:53:36;6.40;99.90
1830;DHT22;914;48.118;11.600;2022-11-14T06:56:07;6.50;99.90
1830;DHT22;914;48.118;11.600;2022-11-14T06:58:37;6.60;99.90
1830;DHT22;914;48.118;11.600;2022-11-14T07:01:15;5.70;99.90
1830;DHT22;914;48.118;11.600;2022-11-14T07:03:42;5.70;99.90
1830;DHT22;914;48.118;11.600;2022-11-14T07:06:13;5.80;99.90
1830;DHT22;914;48.118;11.600;2022-11-14T07:08:39;5.90;99.90
1830;DHT22;914;48.118;11.600;2022-11-14T07:11:10;5.70;99.90
1830;DHT22;914;48.118;11.600;2022-11-14T07:13:36;6.10;99.90
1830;DHT22;914;48.118;11.600;2022-11-14T07:16:02;6.40;99.90
1830;DHT22;914;48.118;11.600;2022-11-14T07:18:32;6.70;99.90
1830;DHT22;914;48.118;11.600;2022-11-14T07:21:01;6.60;99.90
1830;DHT22;914;48.118;11.600;2022-11-14T07:23:27;6.90;99.90
1830;DHT22;914;48.118;11.600;2022-11-14T07:25:53;7.20;99.90
1830;DHT22;914;48.118;11.600;2022-11-14T07:28:19;7.40;99.90
1830;DHT22;914;48.118;11.600;2022-11-14T07:30:44;7.60;99.90
1830;DHT22;914;48.118;11.600;2022-11-14T07:33:10;7.50;99.90
1830;DHT22;914;48.118;11.600;2022-11-14T07:35:38;7.40;99.90
1830;DHT22;914;48.118;11.600;2022-11-14T07:38:04;7.50;99.90
1830;DHT22;914;48.118;11.600;2022-11-14T07:40:30;7.70;99.90
1830;DHT22;914;48.118;11.600;2022-11-14T07:42:59;7.80;99.90
1830;DHT22;914;48.118;11.600;2022-11-14T07:45:29;7.70;99.90
1830;DHT22;914;48.118;11.600;2022-11-14T07:47:56;7.70;99.90
1830;DHT22;914;48.118;11.600;2022-11-14T07:50:22;7.80;99.90
1830;DHT22;914;48.118;11.600;2022-11-14T07:52:50;7.90;99.90
1830;DHT22;914;48.118;11.600;2022-11-14T07:55:15;7.90;99.90
1830;DHT22;914;48.118;11.600;2022-11-14T07:57:41;7.70;99.90
1830;DHT22;914;48.118;11.600;2022-11-14T08:00:07;7.70;99.90
1830;DHT22;914;48.118;11.600;2022-11-14T08:02:33;7.90;99.90
1830;DHT22;914;48.118;11.600;2022-11-14T08:04:58;8.00;99.90
1830;DHT22;914;48.118;11.600;2022-11-14T08:07:25;8.20;99.90
1830;DHT22;914;48.118;11.600;2022-11-14T08:09:51;8.30;99.90
1830;DHT22;914;48.118;11.600;2022-11-14T08:12:19;8.50;99.90
1830;DHT22;914;48.118;11.600;2022-11-14T08:14:45;8.70;99.90
1830;DHT22;914;48.118;11.600;2022-11-14T08:17:11;8.80;99.90
1830;DHT22;914;48.118;11.600;2022-11-14T08:19:36;9.00;99.70
1830;DHT22;914;48.118;11.600;2022-11-14T08:22:02;9.40;99.50
1830;DHT22;914;48.118;11.600;2022-11-14T08:24:27;9.60;99.30
1830;DHT22;914;48.118;11.600;2022-11-14T08:26:53;9.30;98.60
1830;DHT22;914;48.118;11.600;2022-11-14T08:29:19;9.50;99.70
1830;DHT22;914;48.118;11.600;2022-11-14T08:31:45;9.50;98.60
1830;DHT22;914;48.118;11.600;2022-11-14T08:34:11;9.60;98.10
1830;DHT22;914;48.118;11.600;2022-11-14T08:36:37;9.70;98.20
1830;DHT22;914;48.118;11.600;2022-11-14T08:39:03;9.60;97.80
1830;DHT22;914;48.118;11.600;2022-11-14T08:41:28;9.50;97.90
1830;DHT22;914;48.118;11.600;2022-11-14T08:43:54;9.50;98.10
1830;DHT22;914;48.118;11.600;2022-11-14T08:46:20;9.50;98.90
1830;DHT22;914;48.118;11.600;2022-11-14T08:48:46;9.20;99.00
1830;DHT22;914;48.118;11.600;2022-11-14T08:51:12;8.60;99.90
1830;DHT22;914;48.118;11.600;2022-11-14T08:53:38;8.50;99.90
1830;DHT22;914;48.118;11.600;2022-11-14T08:56:04;8.90;99.90
1830;DHT22;914;48.118;11.600;2022-11-14T08:58:30;9.00;99.90
1830;DHT22;914;48.118;11.600;2022-11-14T09:01:06;8.60;99.90
1830;DHT22;914;48.118;11.600;2022-11-14T09:03:32;8.30;99.90
1830;DHT22;914;48.118;11.600;2022-11-14T09:05:58;8.50;99.90
1830;DHT22;914;48.118;11.600;2022-11-14T09:08:24;8.90;99.90
1830;DHT22;914;48.118;11.600;2022-11-14T09:10:50;9.00;99.90
1830;DHT22;914;48.118;11.600;2022-11-14T09:13:16;9.30;99.90
1830;DHT22;914;48.118;11.600;2022-11-14T09:15:42;9.60;99.90
1830;DHT22;914;48.118;11.600;2022-11-14T09:18:09;9.50;99.90
1830;DHT22;914;48.118;11.600;2022-11-14T09:20:34;9.60;99.90
1830;DHT22;914;48.118;11.600;2022-11-14T09:23:01;9.70;99.40
1830;DHT22;914;48.118;11.600;2022-11-14T09:25:30;9.50;99.30
1830;DHT22;914;48.118;11.600;2022-11-14T09:27:56;9.70;99.90
1830;DHT22;914;48.118;11.600;2022-11-14T09:30:23;9.80;99.50
1830;DHT22;914;48.118;11.600;2022-11-14T09:32:49;10.00;98.60
1830;DHT22;914;48.118;11.600;2022-11-14T09:35:16;10.20;98.10
1830;DHT22;914;48.118;11.600;2022-11-14T09:37:41;10.10;99.00
1830;DHT22;914;48.118;11.600;2022-11-14T09:40:09;10.30;98.90
1830;DHT22;914;48.118;11.600;2022-11-14T09:42:54;10.50;98.40
1830;DHT22;914;48.118;11.600;2022-11-14T09:45:24;10.60;98.40
1830;DHT22;914;48.118;11.600;2022-11-14T09:48:00;10.80;98.40
1830;DHT22;914;48.118;11.600;2022-11-14T09:50:32;10.80;98.20
1830;DHT22;914;48.118;11.600;2022-11-14T09:53:04;10.80;97.90
1830;DHT22;914;48.118;11.600;2022-11-14T09:55:33;10.80;98.30
1830;DHT22;914;48.118;11.600;2022-11-14T09:58:01;10.80;99.00
1830;DHT22;914;48.118;11.600;2022-11-14T10:01:01;10.80;98.50
1830;DHT22;914;48.118;11.600;2022-11-14T10:03:44;11.00;97.60
1830;DHT22;914;48.118;11.600;2022-11-14T10:06:32;11.60;96.60
1830;DHT22;914;48.118;11.600;2022-11-14T10:09:28;12.20;96.40
1830;DHT22;914;48.118;11.600;2022-11-14T10:12:15;11.90;95.40
1830;DHT22;914;48.118;11.600;2022-11-14T10:20:18;12.70;96.30
1830;DHT22;914;48.118;11.600;2022-11-14T10:39:27;12.50;95.20
1830;DHT22;914;48.118;11.600;2022-11-14T10:41:58;12.80;95.00
1830;DHT22;914;48.118;11.600;2022-11-14T10:44:30;13.40;94.40
1830;DHT22;914;48.118;11.600;2022-11-14T10:47:02;13.30;93.60
1830;DHT22;914;48.118;11.600;2022-11-14T10:49:33;13.30;94.20
1830;DHT22;914;48.118;11.600;2022-11-14T10:52:08;13.50;93.60
1830;DHT22;914;48.118;11.600;2022-11-14T10:54:45;13.40;93.40
1830;DHT22;914;48.118;11.600;2022-11-14T10:57:15;13.80;94.30
1830;DHT22;914;48.118;11.600;2022-11-14T10:59:41;14.50;93.40
1830;DHT22;914;48.118;11.600;2022-11-14T11:02:08;14.50;92.80
1830;DHT22;914;48.118;11.600;2022-11-14T11:04:39;14.60;92.30
1830;DHT22;914;48.118;11.600;2022-11-14T11:09:59;14.50;92.30
1830;DHT22;914;48.118;11.600;2022-11-14T11:12:49;14.30;92.40
1830;DHT22;914;48.118;11.600;2022-11-14T11:17:59;14.20;93.10
1830;DHT22;914;48.118;11.600;2022-11-14T11:23:17;13.90;93.30
1830;DHT22;914;48.118;11.600;2022-11-14T11:25:43;14.00;93.60
1830;DHT22;914;48.118;11.600;2022-11-14T11:28:17;14.50;92.50
1830;DHT22;914;48.118;11.600;2022-11-14T11:30:58;15.10;92.20
1830;DHT22;914;48.118;11.600;2022-11-14T11:33:27;15.20;92.00
1830;DHT22;914;48.118;11.600;2022-11-14T11:36:03;15.00;92.00
1830;DHT22;914;48.118;11.600;2022-11-14T11:38:31;14.80;92.70
1830;DHT22;914;48.118;11.600;2022-11-14T11:41:04;14.50;93.00
1830;DHT22;914;48.118;11.600;2022-11-14T11:46:17;14.50;93.80
1830;DHT22;914;48.118;11.600;2022-11-14T11:48:46;15.20;93.20
1830;DHT22;914;48.118;11.600;2022-11-14T11:51:17;14.60;93.30
1830;DHT22;914;48.118;11.600;2022-11-14T11:53:59;14.50;94.00
1830;DHT22;914;48.118;11.600;2022-11-14T11:56:31;14.20;94.50
1830;DHT22;914;48.118;11.600;2022-11-14T11:59:34;15.00;93.70
1830;DHT22;914;48.118;11.600;2022-11-14T12:02:03;15.20;93.50
1830;DHT22;914;48.118;11.600;2022-11-14T12:04:40;15.40;92.90
1830;DHT22;914;48.118;11.600;2022-11-14T12:07:13;15.80;91.90
1830;DHT22;914;48.118;11.600;2022-11-14T12:09:41;15.90;92.30
1830;DHT22;914;48.118;11.600;2022-11-14T12:12:37;15.80;91.20
1830;DHT22;914;48.118;11.600;2022-11-14T12:21:16;16.10;91.20
1830;DHT22;914;48.118;11.600;2022-11-14T12:24:06;16.10;90.50
1830;DHT22;914;48.118;11.600;2022-11-14T12:27:05;15.80;89.80
1830;DHT22;914;48.118;11.600;2022-11-14T12:32:33;15.60;90.40
1830;DHT22;914;48.118;11.600;2022-11-14T12:35:04;15.20;90.10
1830;DHT22;914;48.118;11.600;2022-11-14T12:37:35;15.00;90.10
1830;DHT22;914;48.118;11.600;2022-11-14T12:40:04;14.50;90.00
1830;DHT22;914;48.118;11.600;2022-11-14T12:42:30;14.10;90.20
1830;DHT22;914;48.118;11.600;2022-11-14T12:44:56;14.20;90.20
1830;DHT22;914;48.118;11.600;2022-11-14T12:47:26;14.10;90.00
1830;DHT22;914;48.118;11.600;2022-11-14T13:00:27;13.80;90.90
1830;DHT22;914;48.118;11.600;2022-11-14T13:03:01;14.00;90.90
1830;DHT22;914;48.118;11.600;2022-11-14T13:11:42;14.10;91.20
1830;DHT22;914;48.118;11.600;2022-11-14T13:14:28;14.50;91.00
1830;DHT22;914;48.118;11.600;2022-11-14T13:20:02;14.60;91.50
1830;DHT22;914;48.118;11.600;2022-11-14T13:26:34;15.40;89.30
1830;DHT22;914;48.118;11.600;2022-11-14T13:28:55;14.90;90.20
1830;DHT22;914;48.118;11.600;2022-11-14T13:31:43;14.70;90.90
1830;DHT22;914;48.118;11.600;2022-11-14T13:40:03;14.60;91.80
1830;DHT22;914;48.118;11.600;2022-11-14T13:42:48;14.70;91.70
1830;DHT22;914;48.118;11.600;2022-11-14T13:51:09;15.40;90.50
1830;DHT22;914;48.118;11.600;2022-11-14T13:53:38;15.10;91.00
1830;DHT22;914;48.118;11.600;2022-11-14T13:56:34;14.80;91.40
1830;DHT22;914;48.118;11.600;2022-11-14T13:59:49;14.80;91.70
1830;DHT22;914;48.118;11.600;2022-11-14T14:07:52;14.80;91.30
1830;DHT22;914;48.118;11.600;2022-11-14T14:10:28;14.20;91.90
1830;DHT22;914;48.118;11.600;2022-11-14T14:16:11;13.90;93.00
1830;DHT22;914;48.118;11.600;2022-11-14T14:18:48;14.20;93.20
1830;DHT22;914;48.118;11.600;2022-11-14T14:21:49;13.90;92.90
1830;DHT22;914;48.118;11.600;2022-11-14T14:27:35;13.90;93.50
1830;DHT22;914;48.118;11.600;2022-11-14T14:30:18;14.00;93.70
1830;DHT22;914;48.118;11.600;2022-11-14T14:33:02;14.30;93.30
1830;DHT22;914;48.118;11.600;2022-11-14T14:35:31;14.40;92.90
1830;DHT22;914;48.118;11.600;2022-11-14T14:37:58;14.30;93.00
1830;DHT22;914;48.118;11.600;2022-11-14T14:40:27;14.10;93.00
1830;DHT22;914;48.118;11.600;2022-11-14T14:42:54;14.10;93.10
1830;DHT22;914;48.118;11.600;2022-11-14T14:45:23;13.90;93.20
1830;DHT22;914;48.118;11.600;2022-11-14T14:47:57;13.60;93.60
1830;DHT22;914;48.118;11.600;2022-11-14T14:50:29;13.70;94.00
1830;DHT22;914;48.118;11.600;2022-11-14T14:53:00;13.60;93.90
1830;DHT22;914;48.118;11.600;2022-11-14T14:55:33;13.50;94.10
1830;DHT22;914;48.118;11.600;2022-11-14T15:00:50;13.40;94.10
1830;DHT22;914;48.118;11.600;2022-11-14T15:03:17;13.60;94.00
1830;DHT22;914;48.118;11.600;2022-11-14T15:05:43;13.30;94.50
1830;DHT22;914;48.118;11.600;2022-11-14T15:08:14;13.10;94.80
1830;DHT22;914;48.118;11.600;2022-11-14T15:10:41;13.30;94.90
1830;DHT22;914;48.118;11.600;2022-11-14T15:13:10;13.10;95.10
1830;DHT22;914;48.118;11.600;2022-11-14T15:15:38;12.80;95.40
1830;DHT22;914;48.118;11.600;2022-11-14T15:18:06;12.40;95.90
1830;DHT22;914;48.118;11.600;2022-11-14T15:20:33;12.40;96.60
1830;DHT22;914;48.118;11.600;2022-11-14T15:25:35;12.90;95.80
1830;DHT22;914;48.118;11.600;2022-11-14T15:28:01;12.90;95.50
1830;DHT22;914;48.118;11.600;2022-11-14T15:30:30;12.90;95.70
1830;DHT22;914;48.118;11.600;2022-11-14T15:33:00;12.70;96.00
1830;DHT22;914;48.118;11.600;2022-11-14T15:35:32;12.70;95.90
1830;DHT22;914;48.118;11.600;2022-11-14T15:40:40;12.50;96.20
1830;DHT22;914;48.118;11.600;2022-11-14T15:46:27;12.50;96.40
1830;DHT22;914;48.118;11.600;2022-11-14T15:48:54;12.60;96.10
1830;DHT22;914;48.118;11.600;2022-11-14T15:51:45;12.50;96.20
1830;DHT22;914;48.118;11.600;2022-11-14T15:54:22;12.60;95.90
1830;DHT22;914;48.118;11.600;2022-11-14T15:56:48;12.60;95.90
1830;DHT22;914;48.118;11.600;2022-11-14T15:59:14;12.60;95.70
1830;DHT22;914;48.118;11.600;2022-11-14T16:01:41;12.60;95.80
1830;DHT22;914;48.118;11.600;2022-11-14T16:04:17;12.60;95.70
1830;DHT22;914;48.118;11.600;2022-11-14T16:06:43;12.60;95.70
1830;DHT22;914;48.118;11.600;2022-11-14T16:09:16;12.50;95.80
1830;DHT22;914;48.118;11.600;2022-11-14T16:11:43;12.50;95.70
1830;DHT22;914;48.118;11.600;2022-11-14T16:14:09;12.50;95.70
1830;DHT22;914;48.118;11.600;2022-11-14T16:16:34;12.50;95.70
1830;DHT22;914;48.118;11.600;2022-11-14T16:19:04;12.40;95.70
1830;DHT22;914;48.118;11.600;2022-11-14T16:21:30;12.30;96.10
1830;DHT22;914;48.118;11.600;2022-11-14T16:23:55;12.10;96.30
1830;DHT22;914;48.118;11.600;2022-11-14T16:26:22;11.90;96.50
1830;DHT22;914;48.118;11.600;2022-11-14T16:28:50;11.70;96.80
1830;DHT22;914;48.118;11.600;2022-11-14T16:31:16;11.70;97.00
1830;DHT22;914;48.118;11.600;2022-11-14T16:33:42;11.60;97.10
1830;DHT22;914;48.118;11.600;2022-11-14T16:36:11;11.70;97.20
1830;DHT22;914;48.118;11.600;2022-11-14T16:38:37;11.70;97.20
1830;DHT22;914;48.118;11.600;2022-11-14T16:41:07;11.70;97.20
1830;DHT22;914;48.118;11.600;2022-11-14T16:43:33;11.70;97.00
1830;DHT22;914;48.118;11.600;2022-11-14T16:46:06;11.70;97.10
1830;DHT22;914;48.118;11.600;2022-11-14T16:48:32;11.70;97.20
1830;DHT22;914;48.118;11.600;2022-11-14T16:51:01;11.70;97.00
1830;DHT22;914;48.118;11.600;2022-11-14T16:53:28;11.70;97.20
1830;DHT22;914;48.118;11.600;2022-11-14T16:55:55;11.60;97.10
1830;DHT22;914;48.118;11.600;2022-11-14T16:58:21;11.60;97.00
1830;DHT22;914;48.118;11.600;2022-11-14T17:00:47;11.60;96.90
1830;DHT22;914;48.118;11.600;2022-11-14T17:03:13;11.60;97.00
1830;DHT22;914;48.118;11.600;2022-11-14T17:05:48;11.70;97.00
1830;DHT22;914;48.118;11.600;2022-11-14T17:08:14;11.70;96.90
1830;DHT22;914;48.118;11.600;2022-11-14T17:10:41;11.80;96.70
1830;DHT22;914;48.118;11.600;2022-11-14T17:13:07;12.00;96.00
1830;DHT22;914;48.118;11.600;2022-11-14T17:15:33;12.10;95.90
1830;DHT22;914;48.118;11.600;2022-11-14T17:17:59;12.00;95.90
1830;DHT22;914;48.118;11.600;2022-11-14T17:20:25;11.90;96.00
1830;DHT22;914;48.118;11.600;2022-11-14T17:22:51;11.80;96.10
1830;DHT22;914;48.118;11.600;2022-11-14T17:25:17;11.70;96.20
1830;DHT22;914;48.118;11.600;2022-11-14T17:27:42;11.60;96.40
1830;DHT22;914;48.118;11.600;2022-11-14T17:30:11;11.60;96.60
1830;DHT22;914;48.118;11.600;2022-11-14T17:32:37;11.50;96.80
1830;DHT22;914;48.118;11.600;2022-11-14T17:35:03;11.50;96.80
1830;DHT22;914;48.118;11.600;2022-11-14T17:37:29;11.50;96.80
1830;DHT22;914;48.118;11.600;2022-11-14T17:39:55;11.50;96.80
1830;DHT22;914;48.118;11.600;2022-11-14T17:42:20;11.40;96.80
1830;DHT22;914;48.118;11.600;2022-11-14T17:44:48;11.40;97.00
1830;DHT22;914;48.118;11.600;2022-11-14T17:47:17;11.30;96.90
1830;DHT22;914;48.118;11.600;2022-11-14T17:49:43;11.20;96.80
1830;DHT22;914;48.118;11.600;2022-11-14T17:52:09;11.10;97.10
1830;DHT22;914;48.118;11.600;2022-11-14T17:54:36;10.90;97.00
1830;DHT22;914;48.118;11.600;2022-11-14T17:57:06;10.70;97.70
1830;DHT22;914;48.118;11.600;2022-11-14T17:59:32;10.80;97.90
1830;DHT22;914;48.118;11.600;2022-11-14T18:01:58;10.90;97.80
1830;DHT22;914;48.118;11.600;2022-11-14T18:04:25;10.90;97.70
1830;DHT22;914;48.118;11.600;2022-11-14T18:06:51;11.00;97.70